sensor_id;sensor_type;location;lat;lon;timestamp;pressure;altitude;pressure_sealevel;temperature;humidity
56630;BME280;42502;40.732;-74.254;2022-09-09T00:00:17;100324.00;;;29.54;38.94
56630;BME280;42502;40.732;-74.254;2022-09-09T00:02:23;100328.47;;;29.55;39.04
56630;BME280;42502;40.732;-74.254;2022-09-09T00:04:28;100325.63;;;29.55;39.02
56630;BME280;42502;40.732;-74.254;2022-09-09T00:06:32;100320.78;;;29.52;38.87
56630;BME280;42502;40.732;-74.254;2022-09-09T00:10:59;100336.19;;;29.55;39.26
56630;BME280;42502;40.732;-74.254;2022-09-09T00:15:13;100348.38;;;29.55;39.21
56630;BME280;42502;40.732;-74.254;2022-09-09T00:17:31;100337.47;;;29.50;39.13
56630;BME280;42502;40.732;-74.254;2022-09-09T00:19:46;100343.47;;;29.56;38.89
56630;BME280;42502;40.732;-74.254;2022-09-09T00:22:07;100344.75;;;29.55;39.28
56630;BME280;42502;40.732;-74.254;2022-09-09T00:24:38;100350.84;;;29.53;39.18
56630;BME280;42502;40.732;-74.254;2022-09-09T00:26:45;100354.88;;;29.56;39.03
56630;BME280;42502;40.732;-74.254;2022-09-09T00:31:13;100363.84;;;29.54;39.18
56630;BME280;42502;40.732;-74.254;2022-09-09T00:33:18;100366.31;;;29.52;38.78
56630;BME280;42502;40.732;-74.254;2022-09-09T00:35:25;100374.41;;;29.54;39.24
56630;BME280;42502;40.732;-74.254;2022-09-09T00:37:29;100367.16;;;29.49;38.90
56630;BME280;42502;40.732;-74.254;2022-09-09T00:39:42;100378.06;;;29.54;39.43
56630;BME280;42502;40.732;-74.254;2022-09-09T00:46:17;100387.84;;;29.53;38.97
56630;BME280;42502;40.732;-74.254;2022-09-09T00:48:35;100381.75;;;29.51;39.27
56630;BME280;42502;40.732;-74.254;2022-09-09T00:51:05;100378.13;;;29.51;39.45
56630;BME280;42502;40.732;-74.254;2022-09-09T00:53:22;100385.00;;;29.53;39.13
56630;BME280;42502;40.732;-74.254;2022-09-09T00:55:39;100384.19;;;29.53;39.24
56630;BME280;42502;40.732;-74.254;2022-09-09T00:57:43;100384.22;;;29.49;38.84
56630;BME280;42502;40.732;-74.254;2022-09-09T01:01:47;100391.16;;;29.48;38.94
56630;BME280;42502;40.732;-74.254;2022-09-09T01:03:56;100393.56;;;29.50;38.99
56630;BME280;42502;40.732;-74.254;2022-09-09T01:06:31;100400.50;;;29.49;39.06
56630;BME280;42502;40.732;-74.254;2022-09-09T01:10:56;100401.69;;;29.51;38.89
56630;BME280;42502;40.732;-74.254;2022-09-09T01:13:00;100400.88;;;29.51;38.88
56630;BME280;42502;40.732;-74.254;2022-09-09T01:15:14;100405.78;;;29.50;38.87
56630;BME280;42502;40.732;-74.254;2022-09-09T01:20:05;100396.06;;;29.44;38.99
56630;BME280;42502;40.732;-74.254;2022-09-09T01:22:25;100411.06;;;29.48;39.39
56630;BME280;42502;40.732;-74.254;2022-09-09T01:26:50;100407.03;;;29.46;39.31
56630;BME280;42502;40.732;-74.254;2022-09-09T01:28:53;100416.38;;;29.46;39.03
56630;BME280;42502;40.732;-74.254;2022-09-09T01:30:55;100404.22;;;29.42;38.91
56630;BME280;42502;40.732;-74.254;2022-09-09T01:32:57;100413.13;;;29.44;39.38
56630;BME280;42502;40.732;-74.254;2022-09-09T01:35:02;100419.22;;;29.46;38.94
56630;BME280;42502;40.732;-74.254;2022-09-09T01:37:07;100409.06;;;29.45;39.18
56630;BME280;42502;40.732;-74.254;2022-09-09T01:39:10;100410.28;;;29.44;39.36
56630;BME280;42502;40.732;-74.254;2022-09-09T01:41:11;100399.75;;;29.41;39.33
56630;BME280;42502;40.732;-74.254;2022-09-09T01:43:12;100401.75;;;29.44;38.83
56630;BME280;42502;40.732;-74.254;2022-09-09T01:45:13;100393.22;;;29.44;39.10
56630;BME280;42502;40.732;-74.254;2022-09-09T01:47:15;100388.78;;;29.43;39.09
56630;BME280;42502;40.732;-74.254;2022-09-09T01:49:17;100397.31;;;29.43;39.34
56630;BME280;42502;40.732;-74.254;2022-09-09T01:51:18;100395.31;;;29.40;38.80
56630;BME280;42502;40.732;-74.254;2022-09-09T01:53:21;100408.28;;;29.41;38.90
56630;BME280;42502;40.732;-74.254;2022-09-09T01:55:30;100406.25;;;29.41;39.15
56630;BME280;42502;40.732;-74.254;2022-09-09T01:57:36;100409.13;;;29.41;40.07
56630;BME280;42502;40.732;-74.254;2022-09-09T02:02:06;100405.00;;;29.42;40.11
56630;BME280;42502;40.732;-74.254;2022-09-09T02:06:29;100415.97;;;29.44;39.69
56630;BME280;42502;40.732;-74.254;2022-09-09T02:08:39;100406.22;;;29.45;40.21
56630;BME280;42502;40.732;-74.254;2022-09-09T02:10:56;100412.75;;;29.42;40.08
56630;BME280;42502;40.732;-74.254;2022-09-09T02:13:07;100413.13;;;29.44;39.82
56630;BME280;42502;40.732;-74.254;2022-09-09T02:16:22;100404.22;;;29.42;39.70
56630;BME280;42502;40.732;-74.254;2022-09-09T02:17:58;100394.88;;;29.41;40.11
56630;BME280;42502;40.732;-74.254;2022-09-09T02:20:06;100406.22;;;29.45;39.88
56630;BME280;42502;40.732;-74.254;2022-09-09T02:22:09;100407.44;;;29.44;40.03
56630;BME280;42502;40.732;-74.254;2022-09-09T02:24:12;100402.22;;;29.39;39.95
56630;BME280;42502;40.732;-74.254;2022-09-09T02:26:16;100411.13;;;29.45;39.77
56630;BME280;42502;40.732;-74.254;2022-09-09T02:28:22;100414.38;;;29.43;39.80
56630;BME280;42502;40.732;-74.254;2022-09-09T02:30:27;100411.53;;;29.43;39.61
56630;BME280;42502;40.732;-74.254;2022-09-09T02:32:32;100411.97;;;29.41;39.74
56630;BME280;42502;40.732;-74.254;2022-09-09T02:34:39;100410.34;;;29.40;39.69
56630;BME280;42502;40.732;-74.254;2022-09-09T02:36:43;100413.97;;;29.41;39.58
56630;BME280;42502;40.732;-74.254;2022-09-09T02:38:47;100420.06;;;29.43;39.43
56630;BME280;42502;40.732;-74.254;2022-09-09T02:40:53;100417.66;;;29.41;39.56
56630;BME280;42502;40.732;-74.254;2022-09-09T02:42:55;100406.72;;;29.36;39.86
56630;BME280;42502;40.732;-74.254;2022-09-09T02:44:55;100407.53;;;29.37;39.76
56630;BME280;42502;40.732;-74.254;2022-09-09T02:50:08;100418.06;;;29.40;39.82
56630;BME280;42502;40.732;-74.254;2022-09-09T02:52:17;100421.28;;;29.42;39.41
56630;BME280;42502;40.732;-74.254;2022-09-09T02:54:28;100422.50;;;29.41;39.84
56630;BME280;42502;40.732;-74.254;2022-09-09T02:56:38;100416.03;;;29.40;39.37
56630;BME280;42502;40.732;-74.254;2022-09-09T02:58:41;100419.66;;;29.41;39.74
56630;BME280;42502;40.732;-74.254;2022-09-09T03:00:43;100426.59;;;29.40;39.49
56630;BME280;42502;40.732;-74.254;2022-09-09T03:02:45;100431.47;;;29.39;39.49
56630;BME280;42502;40.732;-74.254;2022-09-09T03:04:46;100417.72;;;29.34;39.69
56630;BME280;42502;40.732;-74.254;2022-09-09T03:06:51;100420.94;;;29.36;39.22
56630;BME280;42502;40.732;-74.254;2022-09-09T03:08:51;100435.16;;;29.36;39.75
56630;BME280;42502;40.732;-74.254;2022-09-09T03:10:58;100440.06;;;29.36;39.66
56630;BME280;42502;40.732;-74.254;2022-09-09T03:13:01;100435.59;;;29.35;39.68
56630;BME280;42502;40.732;-74.254;2022-09-09T03:15:02;100429.13;;;29.31;39.47
56630;BME280;42502;40.732;-74.254;2022-09-09T03:17:06;100436.00;;;29.33;39.29
56630;BME280;42502;40.732;-74.254;2022-09-09T03:19:09;100438.06;;;29.33;39.48
56630;BME280;42502;40.732;-74.254;2022-09-09T03:21:10;100429.94;;;29.31;39.99
56630;BME280;42502;40.732;-74.254;2022-09-09T03:23:11;100420.19;;;29.29;39.74
56630;BME280;42502;40.732;-74.254;2022-09-09T03:25:15;100422.72;;;29.23;40.03
56630;BME280;42502;40.732;-74.254;2022-09-09T03:27:17;100434.03;;;29.27;39.66
56630;BME280;42502;40.732;-74.254;2022-09-09T03:29:17;100436.91;;;29.27;39.98
56630;BME280;42502;40.732;-74.254;2022-09-09T03:31:18;100434.03;;;29.27;39.83
56630;BME280;42502;40.732;-74.254;2022-09-09T03:33:20;100436.91;;;29.27;39.70
56630;BME280;42502;40.732;-74.254;2022-09-09T03:35:21;100438.94;;;29.26;39.60
56630;BME280;42502;40.732;-74.254;2022-09-09T03:37:22;100437.34;;;29.21;39.90
56630;BME280;42502;40.732;-74.254;2022-09-09T03:39:23;100445.84;;;29.25;39.73
56630;BME280;42502;40.732;-74.254;2022-09-09T03:41:24;100440.19;;;29.18;39.68
56630;BME280;42502;40.732;-74.254;2022-09-09T03:43:26;100450.34;;;29.22;39.83
56630;BME280;42502;40.732;-74.254;2022-09-09T03:45:27;100458.88;;;29.22;40.03
56630;BME280;42502;40.732;-74.254;2022-09-09T03:47:28;100451.16;;;29.19;40.01
56630;BME280;42502;40.732;-74.254;2022-09-09T03:49:29;100456.44;;;29.21;39.92
56630;BME280;42502;40.732;-74.254;2022-09-09T03:51:30;100460.50;;;29.20;39.83
56630;BME280;42502;40.732;-74.254;2022-09-09T03:53:31;100462.16;;;29.17;39.67
56630;BME280;42502;40.732;-74.254;2022-09-09T03:55:32;100471.06;;;29.19;39.93
56630;BME280;42502;40.732;-74.254;2022-09-09T03:57:33;100471.91;;;29.16;39.51
56630;BME280;42502;40.732;-74.254;2022-09-09T03:59:35;100469.50;;;29.11;39.91
56630;BME280;42502;40.732;-74.254;2022-09-09T04:01:36;100476.41;;;29.14;39.82
56630;BME280;42502;40.732;-74.254;2022-09-09T04:03:36;100475.16;;;29.15;39.67
56630;BME280;42502;40.732;-74.254;2022-09-09T04:05:39;100476.41;;;29.14;39.46
56630;BME280;42502;40.732;-74.254;2022-09-09T04:07:40;100471.50;;;29.14;39.52
56630;BME280;42502;40.732;-74.254;2022-09-09T04:09:41;100472.78;;;29.10;39.78
56630;BME280;42502;40.732;-74.254;2022-09-09T04:11:42;100478.84;;;29.12;39.46
56630;BME280;42502;40.732;-74.254;2022-09-09T04:13:42;100485.31;;;29.12;39.77
56630;BME280;42502;40.732;-74.254;2022-09-09T04:15:51;100480.47;;;29.09;39.55
56630;BME280;42502;40.732;-74.254;2022-09-09T04:17:51;100474.84;;;29.05;39.83
56630;BME280;42502;40.732;-74.254;2022-09-09T04:19:52;100482.09;;;29.10;39.67
56630;BME280;42502;40.732;-74.254;2022-09-09T04:21:53;100481.31;;;29.10;39.72
56630;BME280;42502;40.732;-74.254;2022-09-09T04:23:54;100476.47;;;29.06;39.80
56630;BME280;42502;40.732;-74.254;2022-09-09T04:25:56;100462.75;;;28.94;39.83
56630;BME280;42502;40.732;-74.254;2022-09-09T04:27:57;100481.34;;;29.02;39.64
56630;BME280;42502;40.732;-74.254;2022-09-09T04:29:58;100485.00;;;29.03;39.47
56630;BME280;42502;40.732;-74.254;2022-09-09T04:31:59;100486.25;;;29.02;39.78
56630;BME280;42502;40.732;-74.254;2022-09-09T04:34:00;100474.88;;;28.98;39.62
56630;BME280;42502;40.732;-74.254;2022-09-09T04:36:06;100490.28;;;29.04;39.49
56630;BME280;42502;40.732;-74.254;2022-09-09T04:38:07;100484.63;;;29.01;39.59
56630;BME280;42502;40.732;-74.254;2022-09-09T04:40:09;100488.69;;;29.00;39.50
56630;BME280;42502;40.732;-74.254;2022-09-09T04:42:10;100490.31;;;29.01;39.78
56630;BME280;42502;40.732;-74.254;2022-09-09T04:44:13;100493.16;;;29.01;39.82
56630;BME280;42502;40.732;-74.254;2022-09-09T04:46:13;100494.38;;;29.00;39.90
56630;BME280;42502;40.732;-74.254;2022-09-09T04:48:15;100484.66;;;28.97;39.77
56630;BME280;42502;40.732;-74.254;2022-09-09T04:50:16;100490.75;;;28.96;39.38
56630;BME280;42502;40.732;-74.254;2022-09-09T04:52:17;100511.47;;;28.96;39.65
56630;BME280;42502;40.732;-74.254;2022-09-09T04:54:18;100503.38;;;28.91;39.66
56630;BME280;42502;40.732;-74.254;2022-09-09T04:56:19;100510.66;;;28.96;39.22
56630;BME280;42502;40.732;-74.254;2022-09-09T04:58:20;100503.72;;;28.97;39.66
56630;BME280;42502;40.732;-74.254;2022-09-09T05:00:25;100509.84;;;28.95;39.63
56630;BME280;42502;40.732;-74.254;2022-09-09T05:02:26;100507.81;;;28.96;39.58
56630;BME280;42502;40.732;-74.254;2022-09-09T05:04:27;100502.97;;;28.93;39.50
56630;BME280;42502;40.732;-74.254;2022-09-09T05:06:29;100502.56;;;28.91;39.86
56630;BME280;42502;40.732;-74.254;2022-09-09T05:08:31;100499.34;;;28.88;39.24
56630;BME280;42502;40.732;-74.254;2022-09-09T05:10:33;100504.19;;;28.92;39.48
56630;BME280;42502;40.732;-74.254;2022-09-09T05:12:35;100506.25;;;28.87;39.25
56630;BME280;42502;40.732;-74.254;2022-09-09T05:14:36;100498.53;;;28.84;39.23
56630;BME280;42502;40.732;-74.254;2022-09-09T05:16:37;100505.41;;;28.91;39.08
56630;BME280;42502;40.732;-74.254;2022-09-09T05:18:39;100509.06;;;28.87;39.04
56630;BME280;42502;40.732;-74.254;2022-09-09T05:20:40;100509.50;;;28.89;39.46
56630;BME280;42502;40.732;-74.254;2022-09-09T05:22:42;100514.75;;;28.87;39.57
56630;BME280;42502;40.732;-74.254;2022-09-09T05:24:44;100514.75;;;28.87;39.13
56630;BME280;42502;40.732;-74.254;2022-09-09T05:26:45;100518.03;;;28.86;39.36
56630;BME280;42502;40.732;-74.254;2022-09-09T05:28:46;100514.75;;;28.87;39.30
56630;BME280;42502;40.732;-74.254;2022-09-09T05:30:55;100513.59;;;28.85;39.19
56630;BME280;42502;40.732;-74.254;2022-09-09T05:32:56;100513.16;;;28.86;39.56
56630;BME280;42502;40.732;-74.254;2022-09-09T05:34:57;100516.84;;;28.83;39.53
56630;BME280;42502;40.732;-74.254;2022-09-09T05:36:59;100512.38;;;28.82;39.41
56630;BME280;42502;40.732;-74.254;2022-09-09T05:39:00;100515.59;;;28.84;39.14
56630;BME280;42502;40.732;-74.254;2022-09-09T05:41:02;100516.84;;;28.83;38.98
56630;BME280;42502;40.732;-74.254;2022-09-09T05:43:03;100512.38;;;28.82;39.31
56630;BME280;42502;40.732;-74.254;2022-09-09T05:45:04;100507.53;;;28.79;39.40
56630;BME280;42502;40.732;-74.254;2022-09-09T05:47:05;100510.78;;;28.78;39.34
56630;BME280;42502;40.732;-74.254;2022-09-09T05:49:08;100516.06;;;28.79;39.39
56630;BME280;42502;40.732;-74.254;2022-09-09T05:51:11;100533.91;;;28.80;39.13
56630;BME280;42502;40.732;-74.254;2022-09-09T05:53:17;100529.03;;;28.80;39.51
56630;BME280;42502;40.732;-74.254;2022-09-09T05:55:18;100526.59;;;28.79;39.34
56630;BME280;42502;40.732;-74.254;2022-09-09T05:57:19;100527.84;;;28.78;39.46
56630;BME280;42502;40.732;-74.254;2022-09-09T05:59:20;100533.94;;;28.76;39.25
56630;BME280;42502;40.732;-74.254;2022-09-09T06:01:23;100528.25;;;28.76;39.23
56630;BME280;42502;40.732;-74.254;2022-09-09T06:03:24;100530.25;;;28.76;39.38
56630;BME280;42502;40.732;-74.254;2022-09-09T06:05:25;100528.66;;;28.75;39.36
56630;BME280;42502;40.732;-74.254;2022-09-09T06:07:28;100529.88;;;28.74;39.41
56630;BME280;42502;40.732;-74.254;2022-09-09T06:09:29;100531.94;;;28.69;39.32
56630;BME280;42502;40.732;-74.254;2022-09-09T06:11:31;100527.06;;;28.66;39.39
56630;BME280;42502;40.732;-74.254;2022-09-09T06:13:31;100526.28;;;28.66;39.36
56630;BME280;42502;40.732;-74.254;2022-09-09T06:15:32;100538.84;;;28.68;39.47
56630;BME280;42502;40.732;-74.254;2022-09-09T06:17:34;100541.69;;;28.68;39.22
56630;BME280;42502;40.732;-74.254;2022-09-09T06:19:35;100534.41;;;28.64;39.28
56630;BME280;42502;40.732;-74.254;2022-09-09T06:21:36;100539.28;;;28.67;39.41
56630;BME280;42502;40.732;-74.254;2022-09-09T06:23:39;100536.03;;;28.61;39.04
56630;BME280;42502;40.732;-74.254;2022-09-09T06:25:40;100536.00;;;28.65;39.26
56630;BME280;42502;40.732;-74.254;2022-09-09T06:27:41;100551.06;;;28.65;39.34
56630;BME280;42502;40.732;-74.254;2022-09-09T06:29:42;100538.47;;;28.63;38.96
56630;BME280;42502;40.732;-74.254;2022-09-09T06:31:43;100544.97;;;28.63;39.04
56630;BME280;42502;40.732;-74.254;2022-09-09T06:33:44;100537.69;;;28.62;39.29
56630;BME280;42502;40.732;-74.254;2022-09-09T06:35:51;100540.94;;;28.61;38.91
56630;BME280;42502;40.732;-74.254;2022-09-09T06:37:53;100543.31;;;28.59;38.99
56630;BME280;42502;40.732;-74.254;2022-09-09T06:39:54;100540.09;;;28.57;39.07
56630;BME280;42502;40.732;-74.254;2022-09-09T06:41:55;100544.56;;;28.58;38.98
56630;BME280;42502;40.732;-74.254;2022-09-09T06:43:56;100536.47;;;28.52;38.94
56630;BME280;42502;40.732;-74.254;2022-09-09T06:45:59;100548.63;;;28.57;38.87
56630;BME280;42502;40.732;-74.254;2022-09-09T06:48:00;100538.50;;;28.52;39.22
56630;BME280;42502;40.732;-74.254;2022-09-09T06:50:01;100547.00;;;28.56;38.95
56630;BME280;42502;40.732;-74.254;2022-09-09T06:52:02;100549.84;;;28.56;39.41
56630;BME280;42502;40.732;-74.254;2022-09-09T06:54:03;100548.25;;;28.51;39.16
56630;BME280;42502;40.732;-74.254;2022-09-09T06:58:11;100551.50;;;28.49;39.21
56630;BME280;42502;40.732;-74.254;2022-09-09T07:00:12;100547.44;;;28.50;39.09
56630;BME280;42502;40.732;-74.254;2022-09-09T07:02:14;100543.78;;;28.46;39.16
56630;BME280;42502;40.732;-74.254;2022-09-09T07:04:15;100544.63;;;28.43;39.30
56630;BME280;42502;40.732;-74.254;2022-09-09T07:06:21;100544.22;;;28.45;39.07
56630;BME280;42502;40.732;-74.254;2022-09-09T07:08:23;100554.34;;;28.46;39.12
56630;BME280;42502;40.732;-74.254;2022-09-09T07:10:25;100546.66;;;28.43;39.13
56630;BME280;42502;40.732;-74.254;2022-09-09T07:12:26;100553.53;;;28.45;39.32
56630;BME280;42502;40.732;-74.254;2022-09-09T07:14:26;100552.34;;;28.43;39.20
56630;BME280;42502;40.732;-74.254;2022-09-09T07:16:28;100559.63;;;28.44;39.34
56630;BME280;42502;40.732;-74.254;2022-09-09T07:18:31;100564.50;;;28.43;39.38
56630;BME280;42502;40.732;-74.254;2022-09-09T07:20:32;100563.69;;;28.39;38.94
56630;BME280;42502;40.732;-74.254;2022-09-09T07:22:33;100558.03;;;28.39;39.27
56630;BME280;42502;40.732;-74.254;2022-09-09T07:24:33;100572.22;;;28.39;38.92
56630;BME280;42502;40.732;-74.254;2022-09-09T07:26:34;100565.78;;;28.35;38.89
56630;BME280;42502;40.732;-74.254;2022-09-09T07:28:35;100576.31;;;28.38;39.32
56630;BME280;42502;40.732;-74.254;2022-09-09T07:30:36;100575.47;;;28.38;39.37
56630;BME280;42502;40.732;-74.254;2022-09-09T07:32:37;100577.53;;;28.37;39.04
56630;BME280;42502;40.732;-74.254;2022-09-09T07:34:38;100575.91;;;28.32;39.32
56630;BME280;42502;40.732;-74.254;2022-09-09T07:36:39;100575.13;;;28.32;39.14
56630;BME280;42502;40.732;-74.254;2022-09-09T07:38:45;100577.16;;;28.28;39.29
56630;BME280;42502;40.732;-74.254;2022-09-09T07:40:46;100588.06;;;28.33;39.26
56630;BME280;42502;40.732;-74.254;2022-09-09T07:42:47;100579.56;;;28.33;39.00
56630;BME280;42502;40.732;-74.254;2022-09-09T07:44:48;100592.16;;;28.32;39.20
56630;BME280;42502;40.732;-74.254;2022-09-09T07:46:49;100580.00;;;28.28;38.92
56630;BME280;42502;40.732;-74.254;2022-09-09T07:48:51;100578.78;;;28.29;39.11
56630;BME280;42502;40.732;-74.254;2022-09-09T07:50:52;100581.63;;;28.29;38.85
56630;BME280;42502;40.732;-74.254;2022-09-09T07:52:53;100579.19;;;28.24;38.97
56630;BME280;42502;40.732;-74.254;2022-09-09T07:54:54;100590.56;;;28.27;39.08
56630;BME280;42502;40.732;-74.254;2022-09-09T07:56:56;100580.41;;;28.26;39.08
56630;BME280;42502;40.732;-74.254;2022-09-09T07:58:58;100581.59;;;28.25;39.14
56630;BME280;42502;40.732;-74.254;2022-09-09T08:00:59;100586.50;;;28.25;38.90
56630;BME280;42502;40.732;-74.254;2022-09-09T08:03:00;100586.91;;;28.23;39.33
56630;BME280;42502;40.732;-74.254;2022-09-09T08:05:02;100587.69;;;28.24;39.18
56630;BME280;42502;40.732;-74.254;2022-09-09T08:07:04;100585.28;;;28.22;39.34
56630;BME280;42502;40.732;-74.254;2022-09-09T08:09:05;100589.34;;;28.21;39.15
56630;BME280;42502;40.732;-74.254;2022-09-09T08:11:13;100586.88;;;28.19;39.16
56630;BME280;42502;40.732;-74.254;2022-09-09T08:13:17;100601.09;;;28.19;39.15
56630;BME280;42502;40.732;-74.254;2022-09-09T08:15:18;100593.38;;;28.16;39.43
56630;BME280;42502;40.732;-74.254;2022-09-09T08:17:19;100588.94;;;28.15;38.93
56630;BME280;42502;40.732;-74.254;2022-09-09T08:19:20;100601.91;;;28.16;39.19
56630;BME280;42502;40.732;-74.254;2022-09-09T08:21:23;100601.91;;;28.16;39.45
56630;BME280;42502;40.732;-74.254;2022-09-09T08:23:24;100591.38;;;28.10;39.30
56630;BME280;42502;40.732;-74.254;2022-09-09T08:25:26;100598.28;;;28.12;38.95
56630;BME280;42502;40.732;-74.254;2022-09-09T08:27:27;100597.88;;;28.10;39.23
56630;BME280;42502;40.732;-74.254;2022-09-09T08:29:27;100596.69;;;28.08;38.97
56630;BME280;42502;40.732;-74.254;2022-09-09T08:31:36;100606.81;;;28.12;39.00
56630;BME280;42502;40.732;-74.254;2022-09-09T08:33:38;100586.53;;;28.07;39.04
56630;BME280;42502;40.732;-74.254;2022-09-09T08:35:39;100598.69;;;28.07;39.10
56630;BME280;42502;40.732;-74.254;2022-09-09T08:37:39;100609.22;;;28.10;39.48
56630;BME280;42502;40.732;-74.254;2022-09-09T08:39:40;100609.25;;;28.07;39.38
56630;BME280;42502;40.732;-74.254;2022-09-09T08:46:16;100616.13;;;28.06;38.93
56630;BME280;42502;40.732;-74.254;2022-09-09T08:50:30;100614.53;;;28.05;39.27
56630;BME280;42502;40.732;-74.254;2022-09-09T08:52:43;100622.22;;;28.04;39.39
56630;BME280;42502;40.732;-74.254;2022-09-09T08:54:46;100625.88;;;28.08;39.07
56630;BME280;42502;40.732;-74.254;2022-09-09T08:56:48;100629.13;;;28.07;38.83
56630;BME280;42502;40.732;-74.254;2022-09-09T08:58:52;100632.78;;;28.04;38.93
56630;BME280;42502;40.732;-74.254;2022-09-09T09:05:47;100635.59;;;27.93;39.18
56630;BME280;42502;40.732;-74.254;2022-09-09T09:08:01;100635.63;;;27.96;39.08
56630;BME280;42502;40.732;-74.254;2022-09-09T09:12:41;100643.34;;;27.96;39.13
56630;BME280;42502;40.732;-74.254;2022-09-09T09:14:45;100649.00;;;27.96;39.25
56630;BME280;42502;40.732;-74.254;2022-09-09T09:19:10;100651.44;;;27.94;39.45
56630;BME280;42502;40.732;-74.254;2022-09-09T09:21:27;100649.78;;;27.93;39.43
56630;BME280;42502;40.732;-74.254;2022-09-09T09:23:48;100657.91;;;27.91;39.45
56630;BME280;42502;40.732;-74.254;2022-09-09T09:25:56;100657.09;;;27.90;39.26
56630;BME280;42502;40.732;-74.254;2022-09-09T09:28:22;100653.84;;;27.88;38.91
56630;BME280;42502;40.732;-74.254;2022-09-09T09:30:27;100653.44;;;27.90;38.90
56630;BME280;42502;40.732;-74.254;2022-09-09T09:32:33;100653.44;;;27.86;38.92
56630;BME280;42502;40.732;-74.254;2022-09-09T09:34:35;100646.94;;;27.86;39.39
56630;BME280;42502;40.732;-74.254;2022-09-09T09:36:41;100642.50;;;27.81;38.88
56630;BME280;42502;40.732;-74.254;2022-09-09T09:38:59;100653.03;;;27.84;38.92
56630;BME280;42502;40.732;-74.254;2022-09-09T09:41:00;100651.00;;;27.84;38.89
56630;BME280;42502;40.732;-74.254;2022-09-09T09:43:01;100655.06;;;27.83;39.27
56630;BME280;42502;40.732;-74.254;2022-09-09T09:45:31;100664.41;;;27.80;38.95
56630;BME280;42502;40.732;-74.254;2022-09-09T09:47:32;100658.31;;;27.82;39.37
56630;BME280;42502;40.732;-74.254;2022-09-09T09:49:33;100664.78;;;27.75;39.55
56630;BME280;42502;40.732;-74.254;2022-09-09T09:51:35;100654.66;;;27.78;39.00
56630;BME280;42502;40.732;-74.254;2022-09-09T09:53:38;100661.13;;;27.78;38.83
56630;BME280;42502;40.732;-74.254;2022-09-09T09:55:50;100666.81;;;27.75;39.01
56630;BME280;42502;40.732;-74.254;2022-09-09T09:57:53;100675.34;;;27.78;38.96
56630;BME280;42502;40.732;-74.254;2022-09-09T10:00:15;100678.19;;;27.75;39.00
56630;BME280;42502;40.732;-74.254;2022-09-09T10:02:24;100683.84;;;27.75;38.99
56630;BME280;42502;40.732;-74.254;2022-09-09T10:04:26;100684.25;;;27.73;39.08
56630;BME280;42502;40.732;-74.254;2022-09-09T10:06:35;100706.56;;;27.75;39.27
56630;BME280;42502;40.732;-74.254;2022-09-09T10:08:45;100708.16;;;27.72;39.16
56630;BME280;42502;40.732;-74.254;2022-09-09T10:11:09;100708.97;;;27.69;39.14
56630;BME280;42502;40.732;-74.254;2022-09-09T10:15:47;100706.97;;;27.70;39.04
56630;BME280;42502;40.732;-74.254;2022-09-09T10:20:42;100712.63;;;27.66;39.29
56630;BME280;42502;40.732;-74.254;2022-09-09T10:22:52;100702.91;;;27.63;39.36
56630;BME280;42502;40.732;-74.254;2022-09-09T10:25:21;100708.19;;;27.65;39.22
56630;BME280;42502;40.732;-74.254;2022-09-09T10:30:19;100726.41;;;27.64;39.17
56630;BME280;42502;40.732;-74.254;2022-09-09T10:39:39;100738.56;;;27.61;38.78
56630;BME280;42502;40.732;-74.254;2022-09-09T10:41:53;100739.38;;;27.58;38.94
56630;BME280;42502;40.732;-74.254;2022-09-09T10:51:02;100735.72;;;27.54;39.28
56630;BME280;42502;40.732;-74.254;2022-09-09T10:55:19;100756.78;;;27.53;39.05
56630;BME280;42502;40.732;-74.254;2022-09-09T10:57:37;100755.16;;;27.52;38.95
56630;BME280;42502;40.732;-74.254;2022-09-09T10:59:43;100758.00;;;27.52;39.03
56630;BME280;42502;40.732;-74.254;2022-09-09T11:01:54;100754.72;;;27.50;39.03
56630;BME280;42502;40.732;-74.254;2022-09-09T11:06:19;100761.66;;;27.48;38.88
56630;BME280;42502;40.732;-74.254;2022-09-09T11:08:24;100768.13;;;27.49;38.99
56630;BME280;42502;40.732;-74.254;2022-09-09T11:12:36;100769.72;;;27.46;39.07
56630;BME280;42502;40.732;-74.254;2022-09-09T11:14:48;100772.56;;;27.46;39.07
56630;BME280;42502;40.732;-74.254;2022-09-09T11:17:12;100773.00;;;27.48;38.91
56630;BME280;42502;40.732;-74.254;2022-09-09T11:21:41;100771.75;;;27.42;39.30
56630;BME280;42502;40.732;-74.254;2022-09-09T11:23:48;100773.75;;;27.42;39.49
56630;BME280;42502;40.732;-74.254;2022-09-09T11:25:57;100781.06;;;27.46;39.40
56630;BME280;42502;40.732;-74.254;2022-09-09T11:28:32;100784.31;;;27.45;39.13
56630;BME280;42502;40.732;-74.254;2022-09-09T11:35:30;100796.47;;;27.42;39.16
56630;BME280;42502;40.732;-74.254;2022-09-09T11:42:23;100796.84;;;27.37;38.94
56630;BME280;42502;40.732;-74.254;2022-09-09T11:44:30;100799.28;;;27.38;38.77
56630;BME280;42502;40.732;-74.254;2022-09-09T11:46:34;100798.50;;;27.38;38.66
56630;BME280;42502;40.732;-74.254;2022-09-09T11:48:38;100798.88;;;27.36;38.86
56630;BME280;42502;40.732;-74.254;2022-09-09T11:50:43;100799.69;;;27.37;39.04
56630;BME280;42502;40.732;-74.254;2022-09-09T11:52:45;100804.56;;;27.36;38.72
56630;BME280;42502;40.732;-74.254;2022-09-09T11:54:48;100800.50;;;27.34;38.88
56630;BME280;42502;40.732;-74.254;2022-09-09T11:56:50;100811.84;;;27.34;38.63
56630;BME280;42502;40.732;-74.254;2022-09-09T11:59:26;100808.56;;;27.32;38.93
56630;BME280;42502;40.732;-74.254;2022-09-09T12:01:33;100809.81;;;27.34;38.53
56630;BME280;42502;40.732;-74.254;2022-09-09T12:05:44;100819.91;;;27.32;38.63